createdAt,value
2018-08-11T00:00:28.718Z,21.40
2018-08-11T00:01:02.378Z,21.40
2018-08-11T00:01:35.945Z,21.30
2018-08-11T00:02:09.655Z,21.40
2018-08-11T00:02:43.257Z,21.30
2018-08-11T00:03:16.814Z,21.30
2018-08-11T00:03:50.968Z,21.30
2018-08-11T00:04:24.921Z,21.40
2018-08-11T00:04:58.550Z,21.30
2018-08-11T00:05:32.277Z,21.30
2018-08-11T00:06:06.335Z,21.30
2018-08-11T00:06:40.475Z,21.30
2018-08-11T00:07:14.060Z,21.30
2018-08-11T00:07:48.060Z,21.30
2018-08-11T00:08:22.539Z,21.30
2018-08-11T00:08:56.167Z,21.30
2018-08-11T00:09:30.444Z,21.30
2018-08-11T00:10:04.927Z,21.30
2018-08-11T00:10:38.547Z,21.30
2018-08-11T00:11:12.115Z,21.30
2018-08-11T00:11:46.383Z,21.30
2018-08-11T00:12:20.103Z,21.40
2018-08-11T00:12:54.700Z,21.40
2018-08-11T00:13:28.379Z,21.40
2018-08-11T00:14:01.972Z,21.40
2018-08-11T00:14:35.596Z,21.40
2018-08-11T00:15:11.928Z,21.40
2018-08-11T00:15:45.508Z,21.40
2018-08-11T00:16:19.663Z,21.40
2018-08-11T00:16:53.290Z,21.40
2018-08-11T00:17:26.874Z,21.50
2018-08-11T00:18:00.540Z,21.50
2018-08-11T00:18:34.179Z,21.50
2018-08-11T00:19:08.471Z,21.50
2018-08-11T00:19:42.686Z,21.50
2018-08-11T00:20:23.061Z,21.50
2018-08-11T00:20:56.678Z,21.50
2018-08-11T00:21:30.980Z,21.40
2018-08-11T00:22:04.864Z,21.40
2018-08-11T00:22:39.005Z,21.40
2018-08-11T00:23:13.398Z,21.40
2018-08-11T00:23:47.098Z,21.40
2018-08-11T00:24:21.474Z,21.40
2018-08-11T00:24:55.595Z,21.40
2018-08-11T00:25:29.834Z,21.40
2018-08-11T00:26:03.507Z,21.40
2018-08-11T00:26:37.096Z,21.30
2018-08-11T00:27:10.741Z,21.30
2018-08-11T00:27:44.371Z,21.40
2018-08-11T00:28:18.977Z,21.30
2018-08-11T00:28:52.613Z,21.30
2018-08-11T00:29:26.908Z,21.40
2018-08-11T00:30:02.309Z,21.40
2018-08-11T00:30:35.912Z,21.30
2018-08-11T00:31:10.050Z,21.30
2018-08-11T00:31:43.736Z,21.30
2018-08-11T00:32:17.415Z,21.30
2018-08-11T00:32:51.611Z,21.40
2018-08-11T00:33:26.271Z,21.30
2018-08-11T00:34:00.484Z,21.30
2018-08-11T00:34:34.071Z,21.30
2018-08-11T00:35:09.835Z,21.30
2018-08-11T00:35:43.553Z,21.40
2018-08-11T00:36:18.438Z,21.30
2018-08-11T00:36:52.057Z,21.40
2018-08-11T00:37:25.682Z,21.40
2018-08-11T00:37:59.318Z,21.40
2018-08-11T00:38:32.874Z,21.40
2018-08-11T00:39:10.462Z,21.40
2018-08-11T00:39:44.703Z,21.30
2018-08-11T00:40:19.592Z,21.30
2018-08-11T00:40:53.185Z,21.30
2018-08-11T00:41:26.821Z,21.30
2018-08-11T00:42:00.375Z,21.30
2018-08-11T00:42:33.998Z,21.30
2018-08-11T00:43:07.762Z,21.30
2018-08-11T00:43:42.041Z,21.30
2018-08-11T00:44:15.608Z,21.30
2018-08-11T00:44:49.212Z,21.30
2018-08-11T00:45:24.214Z,21.30
2018-08-11T00:45:57.916Z,21.40
2018-08-11T00:46:32.476Z,21.40
2018-08-11T00:47:06.693Z,21.40
2018-08-11T00:47:40.529Z,21.40
2018-08-11T00:48:14.215Z,21.40
2018-08-11T00:48:47.779Z,21.40
2018-08-11T00:49:21.354Z,21.40
2018-08-11T00:49:54.926Z,21.40
2018-08-11T00:50:36.044Z,21.40
2018-08-11T00:51:09.667Z,21.40
2018-08-11T00:51:43.380Z,21.40
2018-08-11T00:52:17.008Z,21.40
2018-08-11T00:52:50.619Z,21.30
2018-08-11T00:53:24.911Z,21.30
2018-08-11T00:53:58.996Z,21.30
2018-08-11T00:54:32.552Z,21.30
2018-08-11T00:55:08.855Z,21.30
2018-08-11T00:55:42.535Z,21.30
2018-08-11T00:56:16.189Z,21.20
2018-08-11T00:56:49.800Z,21.20
2018-08-11T00:57:23.636Z,21.20
2018-08-11T00:57:57.812Z,21.20
2018-08-11T00:58:31.997Z,21.20
2018-08-11T00:59:05.934Z,21.20
2018-08-11T00:59:39.534Z,21.10
2018-08-11T01:00:16.683Z,21.10
2018-08-11T01:00:50.413Z,21.00
2018-08-11T01:01:24.255Z,21.00
2018-08-11T01:01:58.809Z,21.00
2018-08-11T01:02:32.451Z,21.00
2018-08-11T01:03:06.236Z,21.00
2018-08-11T01:03:39.840Z,21.00
2018-08-11T01:04:13.532Z,20.90
2018-08-11T01:04:47.128Z,20.90
2018-08-11T01:05:21.850Z,20.90
2018-08-11T01:05:56.103Z,20.90
2018-08-11T01:06:29.620Z,20.80
2018-08-11T01:07:04.070Z,20.80
2018-08-11T01:07:37.980Z,20.80
2018-08-11T01:08:12.488Z,20.80
2018-08-11T01:08:46.061Z,20.80
2018-08-11T01:09:19.698Z,20.80
2018-08-11T01:09:53.994Z,20.70
2018-08-11T01:10:28.265Z,20.70
2018-08-11T01:11:02.021Z,20.60
2018-08-11T01:11:35.716Z,20.60
2018-08-11T01:12:10.052Z,20.50
2018-08-11T01:12:44.485Z,20.50
2018-08-11T01:13:18.735Z,20.50
2018-08-11T01:13:52.706Z,20.50
2018-08-11T01:14:27.142Z,20.50
2018-08-11T01:15:01.347Z,20.40
2018-08-11T01:15:34.907Z,20.40
2018-08-11T01:16:08.630Z,20.40
2018-08-11T01:16:42.590Z,20.50
2018-08-11T01:17:16.178Z,20.40
2018-08-11T01:17:50.774Z,20.40
2018-08-11T01:18:24.407Z,20.40
2018-08-11T01:18:58.909Z,20.40
2018-08-11T01:19:32.472Z,20.40
2018-08-11T01:20:08.004Z,20.40
2018-08-11T01:20:41.612Z,20.40
2018-08-11T01:21:16.100Z,20.40
2018-08-11T01:21:49.661Z,20.40
2018-08-11T01:22:23.207Z,20.30
2018-08-11T01:22:56.814Z,20.30
2018-08-11T01:23:30.441Z,20.30
2018-08-11T01:24:04.177Z,20.30
2018-08-11T01:24:37.723Z,20.30
2018-08-11T01:25:12.307Z,20.30
2018-08-11T01:25:45.925Z,20.30
2018-08-11T01:26:19.546Z,20.30
2018-08-11T01:26:53.319Z,20.30
2018-08-11T01:27:28.122Z,20.30
2018-08-11T01:28:01.719Z,20.30
2018-08-11T01:28:35.291Z,20.30
2018-08-11T01:29:09.615Z,20.20
2018-08-11T01:29:43.977Z,20.20
2018-08-11T01:30:19.735Z,20.20
2018-08-11T01:30:53.427Z,20.20
2018-08-11T01:31:27.126Z,20.10
2018-08-11T01:32:01.491Z,20.10
2018-08-11T01:32:35.724Z,20.10
2018-08-11T01:33:09.274Z,20.10
2018-08-11T01:33:43.327Z,20.10
2018-08-11T01:34:16.955Z,20.10
2018-08-11T01:34:51.819Z,20.10
2018-08-11T01:35:25.883Z,20.10
2018-08-11T01:35:59.467Z,20.10
2018-08-11T01:36:33.041Z,20.10
2018-08-11T01:37:06.672Z,20.00
2018-08-11T01:37:41.233Z,20.00
2018-08-11T01:38:14.808Z,20.00
2018-08-11T01:38:48.417Z,20.00
2018-08-11T01:39:22.020Z,20.00
2018-08-11T01:39:55.634Z,20.00
2018-08-11T01:40:29.360Z,19.90
2018-08-11T01:41:02.943Z,19.90
2018-08-11T01:41:36.519Z,19.90
2018-08-11T01:42:11.262Z,19.90
2018-08-11T01:42:46.641Z,19.90
2018-08-11T01:43:20.235Z,19.80
2018-08-11T01:43:53.790Z,19.80
2018-08-11T01:44:27.427Z,19.80
2018-08-11T01:45:01.869Z,19.80
2018-08-11T01:45:36.190Z,19.70
2018-08-11T01:46:10.520Z,19.70
2018-08-11T01:46:44.127Z,19.70
2018-08-11T01:47:17.700Z,19.60
2018-08-11T01:47:51.924Z,19.60
2018-08-11T01:48:26.908Z,19.60
2018-08-11T01:49:00.949Z,19.60
2018-08-11T01:49:34.613Z,19.60
2018-08-11T01:50:09.841Z,19.50
2018-08-11T01:50:43.410Z,19.50
2018-08-11T01:51:16.912Z,19.50
2018-08-11T01:51:50.498Z,19.50
2018-08-11T01:52:24.088Z,19.40
2018-08-11T01:52:57.677Z,19.40
2018-08-11T01:53:31.747Z,19.40
2018-08-11T01:54:05.454Z,19.40
2018-08-11T01:54:39.448Z,19.40
2018-08-11T01:55:15.208Z,19.30
2018-08-11T01:55:49.716Z,19.30
2018-08-11T01:56:23.273Z,19.30
2018-08-11T01:56:56.894Z,19.30
2018-08-11T01:57:30.536Z,19.30
2018-08-11T01:58:04.170Z,19.20
2018-08-11T01:58:37.773Z,19.20
2018-08-11T01:59:11.337Z,19.20
2018-08-11T01:59:44.848Z,19.20
2018-08-11T02:00:21.558Z,19.20
2018-08-11T02:00:55.268Z,19.20
2018-08-11T02:01:28.898Z,19.20
2018-08-11T02:02:03.053Z,19.20
2018-08-11T02:02:36.880Z,19.20
2018-08-11T02:03:10.408Z,19.20
2018-08-11T02:03:44.012Z,19.10
2018-08-11T02:04:18.276Z,19.10
2018-08-11T02:04:51.909Z,19.10
2018-08-11T02:05:25.563Z,19.10
2018-08-11T02:05:59.083Z,19.10
2018-08-11T02:06:33.936Z,19.10
2018-08-11T02:07:07.609Z,19.10
2018-08-11T02:07:42.602Z,19.10
2018-08-11T02:08:16.117Z,19.10
2018-08-11T02:08:49.627Z,19.10
2018-08-11T02:09:23.270Z,19.10
2018-08-11T02:09:57.032Z,19.10
2018-08-11T02:10:30.644Z,19.10
2018-08-11T02:11:04.319Z,19.10
2018-08-11T02:11:37.923Z,19.10
2018-08-11T02:12:11.647Z,19.10
2018-08-11T02:12:45.844Z,19.10
2018-08-11T02:13:19.441Z,19.10
2018-08-11T02:13:53.505Z,19.10
2018-08-11T02:14:27.514Z,19.10
2018-08-11T02:15:01.145Z,19.10
2018-08-11T02:15:34.773Z,19.10
2018-08-11T02:16:09.081Z,19.10
2018-08-11T02:16:43.384Z,19.10
2018-08-11T02:17:17.780Z,19.10
2018-08-11T02:17:51.423Z,19.10
2018-08-11T02:18:24.960Z,19.10
2018-08-11T02:18:58.489Z,19.10
2018-08-11T02:19:32.395Z,19.10
2018-08-11T02:20:08.668Z,19.00
2018-08-11T02:20:42.728Z,19.00
2018-08-11T02:21:17.027Z,19.00
2018-08-11T02:21:50.645Z,19.00
2018-08-11T02:22:24.310Z,19.00
2018-08-11T02:22:58.522Z,19.00
2018-08-11T02:23:32.832Z,19.00
2018-08-11T02:24:07.423Z,19.00
2018-08-11T02:24:40.963Z,19.00
2018-08-11T02:25:15.398Z,19.00
2018-08-11T02:25:48.977Z,19.00
2018-08-11T02:26:23.682Z,19.00
2018-08-11T02:26:57.310Z,19.00
2018-08-11T02:27:32.109Z,18.90
2018-08-11T02:28:06.237Z,18.90
2018-08-11T02:28:39.941Z,18.90
2018-08-11T02:29:14.026Z,18.90
2018-08-11T02:29:47.587Z,18.90
2018-08-11T02:30:22.697Z,18.90
2018-08-11T02:30:56.317Z,18.90
2018-08-11T02:31:30.664Z,18.90
2018-08-11T02:32:04.354Z,18.90
2018-08-11T02:32:38.304Z,18.90
2018-08-11T02:33:11.902Z,18.80
2018-08-11T02:33:45.434Z,18.90
2018-08-11T02:34:19.867Z,18.90
2018-08-11T02:34:53.726Z,18.90
2018-08-11T02:35:29.124Z,18.80
2018-08-11T02:36:02.729Z,18.80
2018-08-11T02:36:36.361Z,18.80
2018-08-11T02:37:09.915Z,18.80
2018-08-11T02:37:44.142Z,18.80
2018-08-11T02:38:17.773Z,18.80
2018-08-11T02:38:51.370Z,18.70
2018-08-11T02:39:25.556Z,18.70
2018-08-11T02:39:59.187Z,18.70
2018-08-11T02:40:32.801Z,18.60
2018-08-11T02:41:06.452Z,18.60
2018-08-11T02:41:40.135Z,18.60
2018-08-11T02:42:13.997Z,18.50
2018-08-11T02:42:47.610Z,18.50
2018-08-11T02:43:21.247Z,18.50
2018-08-11T02:43:54.775Z,18.50
2018-08-11T02:44:28.425Z,18.50
2018-08-11T02:45:02.000Z,18.50
2018-08-11T02:45:36.611Z,18.40
2018-08-11T02:46:10.203Z,18.50
2018-08-11T02:46:43.819Z,18.50
2018-08-11T02:47:17.436Z,18.50
2018-08-11T02:47:51.068Z,18.40
2018-08-11T02:48:24.696Z,18.50
2018-08-11T02:48:58.328Z,18.50
2018-08-11T02:49:32.452Z,18.50
2018-08-11T02:50:07.545Z,18.50
2018-08-11T02:50:42.344Z,18.50
2018-08-11T02:51:16.603Z,18.40
2018-08-11T02:51:50.155Z,18.40
2018-08-11T02:52:23.711Z,18.40
2018-08-11T02:52:57.364Z,18.40
2018-08-11T02:53:30.956Z,18.40
2018-08-11T02:54:05.246Z,18.40
2018-08-11T02:54:38.950Z,18.40
2018-08-11T02:55:13.581Z,18.40
2018-08-11T02:55:47.170Z,18.40
2018-08-11T02:56:20.876Z,18.40
2018-08-11T02:56:55.446Z,18.40
2018-08-11T02:57:29.548Z,18.40
2018-08-11T02:58:03.131Z,18.40
2018-08-11T02:58:36.925Z,18.40
2018-08-11T02:59:10.614Z,18.40
2018-08-11T02:59:44.253Z,18.40
2018-08-11T03:00:18.302Z,18.30
2018-08-11T03:00:51.865Z,18.30
2018-08-11T03:01:25.456Z,18.40
2018-08-11T03:01:59.036Z,18.40
2018-08-11T03:02:32.669Z,18.40
2018-08-11T03:03:06.268Z,18.40
2018-08-11T03:03:39.885Z,18.40
2018-08-11T03:04:13.528Z,18.30
2018-08-11T03:04:47.209Z,18.40
2018-08-11T03:05:20.795Z,18.30
2018-08-11T03:05:55.076Z,18.30
2018-08-11T03:06:29.507Z,18.30
2018-08-11T03:07:03.517Z,18.30
2018-08-11T03:07:37.857Z,18.30
2018-08-11T03:08:11.553Z,18.20
2018-08-11T03:08:45.713Z,18.20
2018-08-11T03:09:19.216Z,18.20
2018-08-11T03:09:53.438Z,18.20
2018-08-11T03:10:27.805Z,18.20
2018-08-11T03:11:02.085Z,18.20
2018-08-11T03:11:35.978Z,18.10
2018-08-11T03:12:09.941Z,18.10
2018-08-11T03:12:43.522Z,18.20
2018-08-11T03:13:18.288Z,18.20
2018-08-11T03:13:52.382Z,18.20
2018-08-11T03:14:25.982Z,18.10
2018-08-11T03:15:00.625Z,18.20
2018-08-11T03:15:34.470Z,18.10
2018-08-11T03:16:08.088Z,18.10
2018-08-11T03:16:42.511Z,18.20
2018-08-11T03:17:16.704Z,18.10
2018-08-11T03:17:50.341Z,18.10
2018-08-11T03:18:24.894Z,18.10
2018-08-11T03:18:58.712Z,18.00
2018-08-11T03:19:32.808Z,18.00
2018-08-11T03:20:10.264Z,18.00
2018-08-11T03:20:45.351Z,18.00
2018-08-11T03:21:19.594Z,18.00
2018-08-11T03:21:53.224Z,18.00
2018-08-11T03:22:26.840Z,18.00
2018-08-11T03:23:01.132Z,18.00
2018-08-11T03:23:36.229Z,18.00
2018-08-11T03:24:10.401Z,18.00
2018-08-11T03:24:44.060Z,17.90
2018-08-11T03:25:17.628Z,17.90
2018-08-11T03:25:51.646Z,17.90
2018-08-11T03:26:25.213Z,17.90
2018-08-11T03:26:59.513Z,17.90
2018-08-11T03:27:33.173Z,17.90
2018-08-11T03:28:06.848Z,17.90
2018-08-11T03:28:40.493Z,18.00
2018-08-11T03:29:14.086Z,18.00
2018-08-11T03:29:47.636Z,18.00
2018-08-11T03:30:21.211Z,18.00
2018-08-11T03:30:55.556Z,18.00
2018-08-11T03:31:30.224Z,18.00
2018-08-11T03:32:03.900Z,18.00
2018-08-11T03:32:38.215Z,18.00
2018-08-11T03:33:12.696Z,18.00
2018-08-11T03:33:46.280Z,18.00
2018-08-11T03:34:19.849Z,18.00
2018-08-11T03:34:53.425Z,18.00
2018-08-11T03:35:27.090Z,18.00
2018-08-11T03:36:00.724Z,18.00
2018-08-11T03:36:34.320Z,18.00
2018-08-11T03:37:07.927Z,18.00
2018-08-11T03:37:42.376Z,18.10
2018-08-11T03:38:15.969Z,18.10
2018-08-11T03:38:49.592Z,18.10
2018-08-11T03:39:23.096Z,18.10
2018-08-11T03:39:56.746Z,18.10
2018-08-11T03:40:30.295Z,18.10
2018-08-11T03:41:03.942Z,18.10
2018-08-11T03:41:38.575Z,18.10
2018-08-11T03:42:12.164Z,18.10
2018-08-11T03:42:45.715Z,18.10
2018-08-11T03:43:19.337Z,18.10
2018-08-11T03:43:53.082Z,18.10
2018-08-11T03:44:27.254Z,18.10
2018-08-11T03:45:01.095Z,18.10
2018-08-11T03:45:35.340Z,18.10
2018-08-11T03:46:09.390Z,18.10
2018-08-11T03:46:43.033Z,18.10
2018-08-11T03:47:16.737Z,18.10
2018-08-11T03:47:50.927Z,18.10
2018-08-11T03:48:24.467Z,18.10
2018-08-11T03:48:58.762Z,18.10
2018-08-11T03:49:32.419Z,18.10
2018-08-11T03:50:06.449Z,18.10
2018-08-11T03:50:40.595Z,18.10
2018-08-11T03:51:14.191Z,18.10
2018-08-11T03:51:47.744Z,18.10
2018-08-11T03:52:21.945Z,18.10
2018-08-11T03:52:55.540Z,18.10
2018-08-11T03:53:29.152Z,18.10
2018-08-11T03:54:02.725Z,18.10
2018-08-11T03:54:36.738Z,18.10
2018-08-11T03:55:10.374Z,18.10
2018-08-11T03:55:43.949Z,18.10
2018-08-11T03:56:17.551Z,18.10
2018-08-11T03:56:51.399Z,18.10
2018-08-11T03:57:24.972Z,18.10
2018-08-11T03:57:59.020Z,18.10
2018-08-11T03:58:32.575Z,18.10
2018-08-11T03:59:06.705Z,18.10
2018-08-11T03:59:40.338Z,18.10
2018-08-11T04:00:14.638Z,18.10
2018-08-11T04:00:48.283Z,18.10
2018-08-11T04:01:21.891Z,18.20
2018-08-11T04:01:55.513Z,18.20
2018-08-11T04:02:30.351Z,18.20
2018-08-11T04:03:04.013Z,18.20
2018-08-11T04:03:38.350Z,18.20
2018-08-11T04:04:11.970Z,18.20
2018-08-11T04:04:45.552Z,18.20
2018-08-11T04:05:19.143Z,18.20
2018-08-11T04:05:53.334Z,18.20
2018-08-11T04:06:27.006Z,18.20
2018-08-11T04:07:00.567Z,18.20
2018-08-11T04:07:34.157Z,18.20
2018-08-11T04:08:07.774Z,18.20
2018-08-11T04:08:42.116Z,18.20
2018-08-11T04:09:15.685Z,18.20
2018-08-11T04:09:49.268Z,18.20
2018-08-11T04:10:24.109Z,18.20
2018-08-11T04:10:59.030Z,18.20
2018-08-11T04:11:32.605Z,18.30
2018-08-11T04:12:06.694Z,18.30
2018-08-11T04:12:40.309Z,18.30
2018-08-11T04:13:14.080Z,18.20
2018-08-11T04:13:47.822Z,18.20
2018-08-11T04:14:22.016Z,18.20
2018-08-11T04:14:55.604Z,18.20
2018-08-11T04:15:29.156Z,18.20
2018-08-11T04:16:02.736Z,18.20
2018-08-11T04:16:36.328Z,18.20
2018-08-11T04:17:10.674Z,18.30
2018-08-11T04:17:44.952Z,18.30
2018-08-11T04:18:18.515Z,18.30
2018-08-11T04:18:53.153Z,18.20
2018-08-11T04:19:27.356Z,18.30
2018-08-11T04:20:01.013Z,18.30
2018-08-11T04:20:34.552Z,18.30
2018-08-11T04:21:08.113Z,18.30
2018-08-11T04:21:41.799Z,18.40
2018-08-11T04:22:15.429Z,18.40
2018-08-11T04:22:48.955Z,18.40
2018-08-11T04:23:22.491Z,18.40
2018-08-11T04:23:56.047Z,18.40
2018-08-11T04:24:31.033Z,18.40
2018-08-11T04:25:05.532Z,18.40
2018-08-11T04:25:39.144Z,18.40
2018-08-11T04:26:13.288Z,18.40
2018-08-11T04:26:47.207Z,18.40
2018-08-11T04:27:20.771Z,18.40
2018-08-11T04:27:55.016Z,18.40
2018-08-11T04:28:28.779Z,18.40
2018-08-11T04:29:02.327Z,18.40
2018-08-11T04:29:35.940Z,18.40
2018-08-11T04:30:11.339Z,18.40
2018-08-11T04:30:44.950Z,18.40
2018-08-11T04:31:18.534Z,18.40
2018-08-11T04:31:53.123Z,18.40
2018-08-11T04:32:27.205Z,18.40
2018-08-11T04:33:01.292Z,18.40
2018-08-11T04:33:35.248Z,18.40
2018-08-11T04:34:08.887Z,18.40
2018-08-11T04:34:43.998Z,18.40
2018-08-11T04:35:17.546Z,18.40
2018-08-11T04:35:51.119Z,18.40
2018-08-11T04:36:25.302Z,18.40
2018-08-11T04:36:59.590Z,18.40
2018-08-11T04:37:33.194Z,18.40
2018-08-11T04:38:06.832Z,18.40
2018-08-11T04:38:40.423Z,18.40
2018-08-11T04:39:13.997Z,18.30
2018-08-11T04:39:48.448Z,18.30
2018-08-11T04:40:22.120Z,18.30
2018-08-11T04:40:56.348Z,18.40
2018-08-11T04:41:30.477Z,18.40
2018-08-11T04:42:04.730Z,18.30
2018-08-11T04:42:38.375Z,18.40
2018-08-11T04:43:12.672Z,18.30
2018-08-11T04:43:46.723Z,18.30
2018-08-11T04:44:20.355Z,18.30
2018-08-11T04:44:53.949Z,18.30
2018-08-11T04:45:27.566Z,18.30
2018-08-11T04:46:02.041Z,18.30
2018-08-11T04:46:36.313Z,18.30
2018-08-11T04:47:10.586Z,18.30
2018-08-11T04:47:44.272Z,18.30
2018-08-11T04:48:17.883Z,18.30
2018-08-11T04:48:51.438Z,18.30
2018-08-11T04:49:25.023Z,18.30
2018-08-11T04:50:00.164Z,18.30
2018-08-11T04:50:33.783Z,18.30
2018-08-11T04:51:07.339Z,18.30
2018-08-11T04:51:40.922Z,18.30
2018-08-11T04:52:14.531Z,18.30
2018-08-11T04:52:48.720Z,18.30
2018-08-11T04:53:22.302Z,18.30
2018-08-11T04:53:55.871Z,18.30
2018-08-11T04:54:29.503Z,18.30
2018-08-11T04:55:04.940Z,18.40
2018-08-11T04:55:38.522Z,18.40
2018-08-11T04:56:12.899Z,18.30
2018-08-11T04:56:46.986Z,18.40
2018-08-11T04:57:21.200Z,18.40
2018-08-11T04:57:55.495Z,18.40
2018-08-11T04:58:29.119Z,18.40
2018-08-11T04:59:06.252Z,18.40
2018-08-11T04:59:40.000Z,18.40
2018-08-11T05:00:14.227Z,18.50
2018-08-11T05:00:47.898Z,18.40
2018-08-11T05:01:21.451Z,18.40
2018-08-11T05:01:55.027Z,18.50
2018-08-11T05:02:28.665Z,18.50
2018-08-11T05:03:02.216Z,18.50
2018-08-11T05:03:37.239Z,18.50
2018-08-11T05:04:10.909Z,18.50
2018-08-11T05:04:45.093Z,18.50
2018-08-11T05:05:19.228Z,18.50
2018-08-11T05:05:52.920Z,18.50
2018-08-11T05:06:26.496Z,18.50
2018-08-11T05:07:00.563Z,18.50
2018-08-11T05:07:34.072Z,18.50
2018-08-11T05:08:07.667Z,18.50
2018-08-11T05:08:41.483Z,18.50
2018-08-11T05:09:15.144Z,18.50
2018-08-11T05:09:48.763Z,18.50
2018-08-11T05:10:22.774Z,18.50
2018-08-11T05:10:57.827Z,18.50
2018-08-11T05:11:31.398Z,18.50
2018-08-11T05:12:05.926Z,18.40
2018-08-11T05:12:39.484Z,18.50
2018-08-11T05:13:13.971Z,18.40
2018-08-11T05:13:48.604Z,18.40
2018-08-11T05:14:22.313Z,18.40
2018-08-11T05:14:55.862Z,18.50
2018-08-11T05:15:29.862Z,18.50
2018-08-11T05:16:03.489Z,18.50
2018-08-11T05:16:37.233Z,18.50
2018-08-11T05:17:11.792Z,18.50
2018-08-11T05:17:45.465Z,18.50
2018-08-11T05:18:19.931Z,18.50
2018-08-11T05:18:53.826Z,18.50
2018-08-11T05:19:27.473Z,18.50
2018-08-11T05:20:01.425Z,18.50
2018-08-11T05:20:35.580Z,18.50
2018-08-11T05:21:10.471Z,18.50
2018-08-11T05:21:44.069Z,18.50
2018-08-11T05:22:17.990Z,18.50
2018-08-11T05:22:51.576Z,18.50
2018-08-11T05:23:25.762Z,18.60
2018-08-11T05:23:59.299Z,18.50
2018-08-11T05:24:34.321Z,18.60
2018-08-11T05:25:10.041Z,18.50
2018-08-11T05:25:43.647Z,18.50
2018-08-11T05:26:17.706Z,18.60
2018-08-11T05:26:51.604Z,18.60
2018-08-11T05:27:25.165Z,18.60
2018-08-11T05:27:59.070Z,18.60
2018-08-11T05:28:33.151Z,18.60
2018-08-11T05:29:06.740Z,18.60
2018-08-11T05:29:40.335Z,18.60
2018-08-11T05:30:14.663Z,18.60
2018-08-11T05:30:49.620Z,18.60
2018-08-11T05:31:24.599Z,18.70
2018-08-11T05:31:58.123Z,18.60
2018-08-11T05:32:32.176Z,18.60
2018-08-11T05:33:06.285Z,18.60
2018-08-11T05:33:39.879Z,18.60
2018-08-11T05:34:14.117Z,18.60
2018-08-11T05:34:48.355Z,18.60
2018-08-11T05:35:22.239Z,18.60
2018-08-11T05:35:55.835Z,18.60
2018-08-11T05:36:29.431Z,18.60
2018-08-11T05:37:02.994Z,18.60
2018-08-11T05:37:36.872Z,18.60
2018-08-11T05:38:11.180Z,18.60
2018-08-11T05:38:45.508Z,18.60
2018-08-11T05:39:19.080Z,18.60
2018-08-11T05:39:52.685Z,18.50
2018-08-11T05:40:26.865Z,18.60
2018-08-11T05:41:00.512Z,18.50
2018-08-11T05:41:34.657Z,18.60
2018-08-11T05:42:08.268Z,18.60
2018-08-11T05:42:41.868Z,18.60
2018-08-11T05:43:15.476Z,18.60
2018-08-11T05:43:49.055Z,18.60
2018-08-11T05:44:22.588Z,18.60
2018-08-11T05:44:56.135Z,18.60
2018-08-11T05:45:29.713Z,18.60
2018-08-11T05:46:03.919Z,18.60
2018-08-11T05:46:37.938Z,18.60
2018-08-11T05:47:11.627Z,18.60
2018-08-11T05:47:45.967Z,18.60
2018-08-11T05:48:20.199Z,18.60
2018-08-11T05:48:54.724Z,18.60
2018-08-11T05:49:28.324Z,18.60
2018-08-11T05:50:01.905Z,18.60
2018-08-11T05:50:35.452Z,18.60
2018-08-11T05:51:09.063Z,18.60
2018-08-11T05:51:42.630Z,18.60
2018-08-11T05:52:16.203Z,18.60
2018-08-11T05:52:49.903Z,18.60
2018-08-11T05:53:24.247Z,18.60
2018-08-11T05:53:58.122Z,18.60
2018-08-11T05:54:31.760Z,18.60
2018-08-11T05:55:06.223Z,18.60
2018-08-11T05:55:39.999Z,18.60
2018-08-11T05:56:13.558Z,18.60
2018-08-11T05:56:47.829Z,18.60
2018-08-11T05:57:22.134Z,18.70
2018-08-11T05:57:55.731Z,18.70
2018-08-11T05:58:29.881Z,18.60
2018-08-11T05:59:03.524Z,18.60
2018-08-11T05:59:37.146Z,18.60
2018-08-11T06:00:11.232Z,18.60
2018-08-11T06:00:44.778Z,18.60
2018-08-11T06:01:18.367Z,18.60
2018-08-11T06:01:51.921Z,18.60
2018-08-11T06:02:25.523Z,18.60
2018-08-11T06:02:59.116Z,18.50
2018-08-11T06:03:32.907Z,18.50
2018-08-11T06:04:06.659Z,18.60
2018-08-11T06:04:40.490Z,18.50
2018-08-11T06:05:14.217Z,18.60
2018-08-11T06:05:47.827Z,18.60
2018-08-11T06:06:21.434Z,18.60
2018-08-11T06:06:56.148Z,18.60
2018-08-11T06:07:29.782Z,18.60
2018-08-11T06:08:04.159Z,18.60
2018-08-11T06:08:37.806Z,18.60
2018-08-11T06:09:12.352Z,18.60
2018-08-11T06:09:46.930Z,18.60
2018-08-11T06:10:20.649Z,18.60
2018-08-11T06:10:54.309Z,18.60
2018-08-11T06:11:29.091Z,18.60
2018-08-11T06:12:02.641Z,18.60
2018-08-11T06:12:36.603Z,18.60
2018-08-11T06:13:10.179Z,18.60
2018-08-11T06:13:43.749Z,18.60
2018-08-11T06:14:17.282Z,18.60
2018-08-11T06:14:51.169Z,18.60
2018-08-11T06:15:24.797Z,18.60
2018-08-11T06:15:59.053Z,18.60
2018-08-11T06:16:33.448Z,18.60
2018-08-11T06:17:07.621Z,18.60
2018-08-11T06:17:41.820Z,18.70
2018-08-11T06:18:15.512Z,18.70
2018-08-11T06:18:49.860Z,18.70
2018-08-11T06:19:23.957Z,18.70
2018-08-11T06:19:57.522Z,18.70
2018-08-11T06:20:31.090Z,18.70
2018-08-11T06:21:04.693Z,18.70
2018-08-11T06:21:39.217Z,18.70
2018-08-11T06:22:13.080Z,18.70
2018-08-11T06:22:47.465Z,18.70
2018-08-11T06:23:21.060Z,18.70
2018-08-11T06:23:55.434Z,18.80
2018-08-11T06:24:29.049Z,18.80
2018-08-11T06:25:02.642Z,18.80
2018-08-11T06:25:37.738Z,18.80
2018-08-11T06:26:11.512Z,18.90
2018-08-11T06:26:45.228Z,18.90
2018-08-11T06:27:18.783Z,18.90
2018-08-11T06:27:52.489Z,18.80
2018-08-11T06:28:26.987Z,18.90
2018-08-11T06:29:00.666Z,18.90
2018-08-11T06:29:34.214Z,18.90
2018-08-11T06:30:09.497Z,18.90
2018-08-11T06:30:43.092Z,18.90
2018-08-11T06:31:16.773Z,18.90
2018-08-11T06:31:51.759Z,18.90
2018-08-11T06:32:25.945Z,18.90
2018-08-11T06:33:00.115Z,18.90
2018-08-11T06:33:33.717Z,18.90
2018-08-11T06:34:07.363Z,18.90
2018-08-11T06:34:41.658Z,18.90
2018-08-11T06:35:15.201Z,18.90
2018-08-11T06:35:48.815Z,18.90
2018-08-11T06:36:22.391Z,18.80
2018-08-11T06:36:56.467Z,18.90
2018-08-11T06:37:30.069Z,18.90
2018-08-11T06:38:04.410Z,18.90
2018-08-11T06:38:37.922Z,18.90
2018-08-11T06:39:14.607Z,18.90
2018-08-11T06:39:48.272Z,18.90
2018-08-11T06:40:21.872Z,18.90
2018-08-11T06:40:56.229Z,18.90
2018-08-11T06:41:29.709Z,18.90
2018-08-11T06:42:03.321Z,18.90
2018-08-11T06:42:36.995Z,18.90
2018-08-11T06:43:10.576Z,18.90
2018-08-11T06:43:44.192Z,18.90
2018-08-11T06:44:18.634Z,18.90
2018-08-11T06:44:52.584Z,18.90
2018-08-11T06:45:26.202Z,18.90
2018-08-11T06:46:01.081Z,18.90
2018-08-11T06:46:34.756Z,18.90
2018-08-11T06:47:08.714Z,18.90
2018-08-11T06:47:42.343Z,18.90
2018-08-11T06:48:15.906Z,18.90
2018-08-11T06:48:50.988Z,18.90
2018-08-11T06:49:24.578Z,18.90
2018-08-11T06:49:58.268Z,18.90
2018-08-11T06:50:31.851Z,19.00
2018-08-11T06:51:05.439Z,19.00
2018-08-11T06:51:39.028Z,19.00
2018-08-11T06:52:15.692Z,19.00
2018-08-11T06:52:49.462Z,19.00
2018-08-11T06:53:24.481Z,19.00
2018-08-11T06:53:58.700Z,19.00
2018-08-11T06:54:32.267Z,19.00
2018-08-11T06:55:08.012Z,19.00
2018-08-11T06:55:48.572Z,19.00
2018-08-11T06:56:22.220Z,19.00
2018-08-11T06:56:55.884Z,19.00
2018-08-11T06:57:29.624Z,19.00
2018-08-11T06:58:03.139Z,19.00
2018-08-11T06:58:36.828Z,19.00
2018-08-11T06:59:14.762Z,19.00
2018-08-11T06:59:48.362Z,19.00
2018-08-11T07:00:22.078Z,19.00
2018-08-11T07:00:57.417Z,19.00
2018-08-11T07:01:31.614Z,19.10
2018-08-11T07:02:05.625Z,19.10
2018-08-11T07:02:39.180Z,19.00
2018-08-11T07:03:13.771Z,19.00
2018-08-11T07:03:47.356Z,19.10
2018-08-11T07:04:20.936Z,19.00
2018-08-11T07:04:54.560Z,19.10
2018-08-11T07:05:29.081Z,19.10
2018-08-11T07:06:02.630Z,19.10
2018-08-11T07:06:36.262Z,19.10
2018-08-11T07:07:10.432Z,19.10
2018-08-11T07:07:44.150Z,19.10
2018-08-11T07:08:19.484Z,19.10
2018-08-11T07:08:53.124Z,19.10
2018-08-11T07:09:27.355Z,19.10
2018-08-11T07:10:00.910Z,19.10
2018-08-11T07:10:35.363Z,19.10
2018-08-11T07:11:09.018Z,19.10
2018-08-11T07:11:43.213Z,19.00
2018-08-11T07:12:16.811Z,19.10
2018-08-11T07:12:50.413Z,19.10
2018-08-11T07:13:24.248Z,19.10
2018-08-11T07:13:58.461Z,19.10
2018-08-11T07:14:32.028Z,19.00
2018-08-11T07:15:06.323Z,19.10
2018-08-11T07:15:39.925Z,19.10
2018-08-11T07:16:14.796Z,19.10
2018-08-11T07:16:48.352Z,19.10
2018-08-11T07:17:21.939Z,19.10
2018-08-11T07:17:55.616Z,19.10